sensor_id;sensor_type;location;lat;lon;timestamp;P1;durP1;ratioP1;P2;durP2;ratioP2
70780;SDS011;59514;48.810;2.134;2023-05-07T00:00:58;3.05;;;2.67;;
70780;SDS011;59514;48.810;2.134;2023-05-07T00:03:24;2.75;;;2.55;;
70780;SDS011;59514;48.810;2.134;2023-05-07T00:05:51;2.50;;;2.30;;
70780;SDS011;59514;48.810;2.134;2023-05-07T00:08:17;2.83;;;2.25;;
70780;SDS011;59514;48.810;2.134;2023-05-07T00:10:43;2.28;;;2.08;;
70780;SDS011;59514;48.810;2.134;2023-05-07T00:13:08;2.92;;;2.70;;
70780;SDS011;59514;48.810;2.134;2023-05-07T00:15:34;2.63;;;2.42;;
70780;SDS011;59514;48.810;2.134;2023-05-07T00:17:59;3.13;;;2.42;;
70780;SDS011;59514;48.810;2.134;2023-05-07T00:20:25;3.22;;;2.67;;
70780;SDS011;59514;48.810;2.134;2023-05-07T00:22:50;3.13;;;2.75;;
70780;SDS011;59514;48.810;2.134;2023-05-07T00:25:15;3.65;;;2.45;;
70780;SDS011;59514;48.810;2.134;2023-05-07T00:27:41;4.68;;;2.55;;
70780;SDS011;59514;48.810;2.134;2023-05-07T00:30:06;2.75;;;2.55;;
70780;SDS011;59514;48.810;2.134;2023-05-07T00:32:33;3.25;;;2.95;;
70780;SDS011;59514;48.810;2.134;2023-05-07T00:34:58;3.95;;;3.55;;
70780;SDS011;59514;48.810;2.134;2023-05-07T00:37:24;3.47;;;3.10;;
70780;SDS011;59514;48.810;2.134;2023-05-07T00:39:49;3.45;;;2.78;;
70780;SDS011;59514;48.810;2.134;2023-05-07T00:42:14;5.20;;;2.85;;
70780;SDS011;59514;48.810;2.134;2023-05-07T00:44:41;2.38;;;2.17;;
70780;SDS011;59514;48.810;2.134;2023-05-07T00:47:06;2.38;;;2.17;;
70780;SDS011;59514;48.810;2.134;2023-05-07T00:49:37;2.42;;;2.22;;
70780;SDS011;59514;48.810;2.134;2023-05-07T00:52:05;2.55;;;2.17;;
70780;SDS011;59514;48.810;2.134;2023-05-07T00:54:32;2.28;;;2.08;;
70780;SDS011;59514;48.810;2.134;2023-05-07T00:56:58;2.80;;;2.10;;
70780;SDS011;59514;48.810;2.134;2023-05-07T00:59:24;2.00;;;1.75;;
70780;SDS011;59514;48.810;2.134;2023-05-07T01:01:49;1.88;;;1.70;;
70780;SDS011;59514;48.810;2.134;2023-05-07T01:04:15;2.40;;;1.67;;
70780;SDS011;59514;48.810;2.134;2023-05-07T01:06:40;1.65;;;1.55;;
70780;SDS011;59514;48.810;2.134;2023-05-07T01:09:06;1.92;;;1.73;;
70780;SDS011;59514;48.810;2.134;2023-05-07T01:11:32;2.05;;;1.40;;
70780;SDS011;59514;48.810;2.134;2023-05-07T01:13:58;1.75;;;1.38;;
70780;SDS011;59514;48.810;2.134;2023-05-07T01:16:24;1.70;;;1.60;;
70780;SDS011;59514;48.810;2.134;2023-05-07T01:18:50;1.20;;;1.13;;
70780;SDS011;59514;48.810;2.134;2023-05-07T01:21:16;1.70;;;1.27;;
70780;SDS011;59514;48.810;2.134;2023-05-07T01:23:42;1.27;;;1.15;;
70780;SDS011;59514;48.810;2.134;2023-05-07T01:26:10;1.90;;;1.35;;
70780;SDS011;59514;48.810;2.134;2023-05-07T01:28:35;1.77;;;1.25;;
70780;SDS011;59514;48.810;2.134;2023-05-07T01:31:01;1.52;;;1.40;;
70780;SDS011;59514;48.810;2.134;2023-05-07T01:33:29;1.20;;;1.10;;
70780;SDS011;59514;48.810;2.134;2023-05-07T01:35:58;1.77;;;1.15;;
70780;SDS011;59514;48.810;2.134;2023-05-07T01:38:29;1.35;;;1.13;;
70780;SDS011;59514;48.810;2.134;2023-05-07T01:40:55;1.33;;;0.88;;
70780;SDS011;59514;48.810;2.134;2023-05-07T01:43:20;1.35;;;0.80;;
70780;SDS011;59514;48.810;2.134;2023-05-07T01:45:46;0.80;;;0.80;;
70780;SDS011;59514;48.810;2.134;2023-05-07T01:48:14;1.80;;;1.17;;
70780;SDS011;59514;48.810;2.134;2023-05-07T01:50:40;1.25;;;0.70;;
70780;SDS011;59514;48.810;2.134;2023-05-07T01:53:07;1.00;;;0.70;;
70780;SDS011;59514;48.810;2.134;2023-05-07T01:55:32;0.60;;;0.60;;
70780;SDS011;59514;48.810;2.134;2023-05-07T01:57:58;0.90;;;0.65;;
70780;SDS011;59514;48.810;2.134;2023-05-07T02:00:23;1.20;;;0.70;;
70780;SDS011;59514;48.810;2.134;2023-05-07T02:02:49;0.55;;;0.55;;
70780;SDS011;59514;48.810;2.134;2023-05-07T02:05:14;0.50;;;0.50;;
70780;SDS011;59514;48.810;2.134;2023-05-07T02:07:39;1.13;;;0.60;;
70780;SDS011;59514;48.810;2.134;2023-05-07T02:10:05;0.82;;;0.70;;
70780;SDS011;59514;48.810;2.134;2023-05-07T02:12:31;0.60;;;0.60;;
70780;SDS011;59514;48.810;2.134;2023-05-07T02:14:56;0.50;;;0.50;;
70780;SDS011;59514;48.810;2.134;2023-05-07T02:17:21;0.47;;;0.47;;
70780;SDS011;59514;48.810;2.134;2023-05-07T02:19:47;0.60;;;0.50;;
70780;SDS011;59514;48.810;2.134;2023-05-07T02:22:12;0.50;;;0.50;;
70780;SDS011;59514;48.810;2.134;2023-05-07T02:24:37;0.68;;;0.40;;
70780;SDS011;59514;48.810;2.134;2023-05-07T02:27:03;0.45;;;0.45;;
70780;SDS011;59514;48.810;2.134;2023-05-07T02:29:28;0.60;;;0.60;;
70780;SDS011;59514;48.810;2.134;2023-05-07T02:31:54;0.60;;;0.50;;
70780;SDS011;59514;48.810;2.134;2023-05-07T02:34:20;1.60;;;0.55;;
70780;SDS011;59514;48.810;2.134;2023-05-07T02:36:46;0.68;;;0.50;;
70780;SDS011;59514;48.810;2.134;2023-05-07T02:39:14;0.40;;;0.40;;
70780;SDS011;59514;48.810;2.134;2023-05-07T02:41:40;0.32;;;0.30;;
70780;SDS011;59514;48.810;2.134;2023-05-07T02:44:05;0.40;;;0.40;;
70780;SDS011;59514;48.810;2.134;2023-05-07T02:46:31;0.60;;;0.60;;
70780;SDS011;59514;48.810;2.134;2023-05-07T02:48:56;0.40;;;0.40;;
70780;SDS011;59514;48.810;2.134;2023-05-07T02:51:22;0.50;;;0.50;;
70780;SDS011;59514;48.810;2.134;2023-05-07T02:53:48;0.57;;;0.40;;
70780;SDS011;59514;48.810;2.134;2023-05-07T02:56:13;0.50;;;0.50;;
70780;SDS011;59514;48.810;2.134;2023-05-07T02:58:39;1.20;;;0.50;;
70780;SDS011;59514;48.810;2.134;2023-05-07T03:01:05;0.63;;;0.50;;
70780;SDS011;59514;48.810;2.134;2023-05-07T03:03:30;1.27;;;0.60;;
70780;SDS011;59514;48.810;2.134;2023-05-07T03:05:56;1.83;;;0.50;;
70780;SDS011;59514;48.810;2.134;2023-05-07T03:08:21;0.98;;;0.70;;
70780;SDS011;59514;48.810;2.134;2023-05-07T03:10:47;0.40;;;0.40;;
70780;SDS011;59514;48.810;2.134;2023-05-07T03:13:12;1.10;;;0.68;;
70780;SDS011;59514;48.810;2.134;2023-05-07T03:15:37;0.50;;;0.50;;
70780;SDS011;59514;48.810;2.134;2023-05-07T03:18:03;0.50;;;0.50;;
70780;SDS011;59514;48.810;2.134;2023-05-07T03:20:28;0.70;;;0.50;;
70780;SDS011;59514;48.810;2.134;2023-05-07T03:22:53;0.82;;;0.40;;
70780;SDS011;59514;48.810;2.134;2023-05-07T03:25:19;0.60;;;0.60;;
70780;SDS011;59514;48.810;2.134;2023-05-07T03:27:44;0.70;;;0.70;;
70780;SDS011;59514;48.810;2.134;2023-05-07T03:30:09;0.73;;;0.73;;
70780;SDS011;59514;48.810;2.134;2023-05-07T03:32:36;0.57;;;0.57;;
70780;SDS011;59514;48.810;2.134;2023-05-07T03:35:01;0.70;;;0.52;;
70780;SDS011;59514;48.810;2.134;2023-05-07T03:37:27;0.70;;;0.70;;
70780;SDS011;59514;48.810;2.134;2023-05-07T03:39:53;1.08;;;0.80;;
70780;SDS011;59514;48.810;2.134;2023-05-07T03:42:19;0.70;;;0.70;;
70780;SDS011;59514;48.810;2.134;2023-05-07T03:44:44;1.10;;;0.70;;
70780;SDS011;59514;48.810;2.134;2023-05-07T03:47:10;0.50;;;0.50;;
70780;SDS011;59514;48.810;2.134;2023-05-07T03:49:35;0.95;;;0.60;;
70780;SDS011;59514;48.810;2.134;2023-05-07T03:52:01;0.60;;;0.60;;
70780;SDS011;59514;48.810;2.134;2023-05-07T03:54:26;0.50;;;0.50;;
70780;SDS011;59514;48.810;2.134;2023-05-07T03:56:51;0.70;;;0.60;;
70780;SDS011;59514;48.810;2.134;2023-05-07T03:59:17;0.60;;;0.50;;
70780;SDS011;59514;48.810;2.134;2023-05-07T04:01:42;0.75;;;0.60;;
70780;SDS011;59514;48.810;2.134;2023-05-07T04:04:07;1.00;;;0.40;;
70780;SDS011;59514;48.810;2.134;2023-05-07T04:06:32;0.70;;;0.70;;
70780;SDS011;59514;48.810;2.134;2023-05-07T04:08:58;0.57;;;0.57;;
70780;SDS011;59514;48.810;2.134;2023-05-07T04:11:23;0.60;;;0.60;;
70780;SDS011;59514;48.810;2.134;2023-05-07T04:13:49;0.50;;;0.50;;
70780;SDS011;59514;48.810;2.134;2023-05-07T04:16:15;1.30;;;0.68;;
70780;SDS011;59514;48.810;2.134;2023-05-07T04:18:40;2.70;;;0.70;;
70780;SDS011;59514;48.810;2.134;2023-05-07T04:21:13;0.70;;;0.70;;
70780;SDS011;59514;48.810;2.134;2023-05-07T04:23:39;1.70;;;0.77;;
70780;SDS011;59514;48.810;2.134;2023-05-07T04:26:04;2.45;;;0.70;;
70780;SDS011;59514;48.810;2.134;2023-05-07T04:28:30;0.63;;;0.63;;
70780;SDS011;59514;48.810;2.134;2023-05-07T04:30:55;1.00;;;0.70;;
70780;SDS011;59514;48.810;2.134;2023-05-07T04:33:20;0.70;;;0.68;;
70780;SDS011;59514;48.810;2.134;2023-05-07T04:35:46;0.60;;;0.60;;
70780;SDS011;59514;48.810;2.134;2023-05-07T04:38:11;0.75;;;0.70;;
70780;SDS011;59514;48.810;2.134;2023-05-07T04:40:36;0.63;;;0.63;;
70780;SDS011;59514;48.810;2.134;2023-05-07T04:43:02;0.75;;;0.75;;
70780;SDS011;59514;48.810;2.134;2023-05-07T04:45:27;0.80;;;0.80;;
70780;SDS011;59514;48.810;2.134;2023-05-07T04:47:52;1.48;;;0.77;;
70780;SDS011;59514;48.810;2.134;2023-05-07T04:50:18;0.90;;;0.70;;
70780;SDS011;59514;48.810;2.134;2023-05-07T04:52:44;0.57;;;0.57;;
70780;SDS011;59514;48.810;2.134;2023-05-07T04:55:10;0.90;;;0.50;;
70780;SDS011;59514;48.810;2.134;2023-05-07T04:57:35;0.68;;;0.60;;
70780;SDS011;59514;48.810;2.134;2023-05-07T05:00:01;0.70;;;0.70;;
70780;SDS011;59514;48.810;2.134;2023-05-07T05:02:26;0.70;;;0.70;;
70780;SDS011;59514;48.810;2.134;2023-05-07T05:04:51;1.13;;;0.70;;
70780;SDS011;59514;48.810;2.134;2023-05-07T05:07:17;0.90;;;0.70;;
70780;SDS011;59514;48.810;2.134;2023-05-07T05:09:42;1.25;;;0.90;;
70780;SDS011;59514;48.810;2.134;2023-05-07T05:12:07;1.23;;;0.80;;
70780;SDS011;59514;48.810;2.134;2023-05-07T05:14:32;1.38;;;0.70;;
70780;SDS011;59514;48.810;2.134;2023-05-07T05:16:58;0.50;;;0.50;;
70780;SDS011;59514;48.810;2.134;2023-05-07T05:19:23;0.60;;;0.60;;
70780;SDS011;59514;48.810;2.134;2023-05-07T05:21:48;0.73;;;0.55;;
70780;SDS011;59514;48.810;2.134;2023-05-07T05:24:14;0.52;;;0.52;;
70780;SDS011;59514;48.810;2.134;2023-05-07T05:26:40;0.88;;;0.77;;
70780;SDS011;59514;48.810;2.134;2023-05-07T05:29:05;0.95;;;0.60;;
70780;SDS011;59514;48.810;2.134;2023-05-07T05:31:31;0.80;;;0.70;;
70780;SDS011;59514;48.810;2.134;2023-05-07T05:33:56;0.50;;;0.50;;
70780;SDS011;59514;48.810;2.134;2023-05-07T05:36:21;0.50;;;0.50;;
70780;SDS011;59514;48.810;2.134;2023-05-07T05:38:47;0.50;;;0.50;;
70780;SDS011;59514;48.810;2.134;2023-05-07T05:41:12;3.20;;;0.77;;
70780;SDS011;59514;48.810;2.134;2023-05-07T05:43:37;0.57;;;0.57;;
70780;SDS011;59514;48.810;2.134;2023-05-07T05:46:03;0.73;;;0.73;;
70780;SDS011;59514;48.810;2.134;2023-05-07T05:48:29;0.55;;;0.55;;
70780;SDS011;59514;48.810;2.134;2023-05-07T05:50:55;6.07;;;5.53;;
70780;SDS011;59514;48.810;2.134;2023-05-07T05:53:20;4.05;;;3.70;;
70780;SDS011;59514;48.810;2.134;2023-05-07T05:55:45;2.60;;;2.40;;
70780;SDS011;59514;48.810;2.134;2023-05-07T05:58:11;1.90;;;1.55;;
70780;SDS011;59514;48.810;2.134;2023-05-07T06:00:36;1.50;;;1.40;;
70780;SDS011;59514;48.810;2.134;2023-05-07T06:03:02;1.50;;;1.27;;
70780;SDS011;59514;48.810;2.134;2023-05-07T06:05:27;1.70;;;1.40;;
70780;SDS011;59514;48.810;2.134;2023-05-07T06:07:53;1.15;;;1.05;;
70780;SDS011;59514;48.810;2.134;2023-05-07T06:10:18;1.10;;;1.00;;
70780;SDS011;59514;48.810;2.134;2023-05-07T06:12:43;1.50;;;0.85;;
70780;SDS011;59514;48.810;2.134;2023-05-07T06:15:09;0.98;;;0.90;;
70780;SDS011;59514;48.810;2.134;2023-05-07T06:17:35;1.00;;;0.95;;
70780;SDS011;59514;48.810;2.134;2023-05-07T06:20:00;1.42;;;0.80;;
70780;SDS011;59514;48.810;2.134;2023-05-07T06:22:25;1.08;;;0.95;;
70780;SDS011;59514;48.810;2.134;2023-05-07T06:24:51;1.00;;;0.80;;
70780;SDS011;59514;48.810;2.134;2023-05-07T06:27:16;1.10;;;0.80;;
70780;SDS011;59514;48.810;2.134;2023-05-07T06:29:41;1.00;;;0.85;;
70780;SDS011;59514;48.810;2.134;2023-05-07T06:32:10;1.13;;;0.75;;
70780;SDS011;59514;48.810;2.134;2023-05-07T06:34:37;1.85;;;1.05;;
70780;SDS011;59514;48.810;2.134;2023-05-07T06:37:03;1.00;;;0.90;;
70780;SDS011;59514;48.810;2.134;2023-05-07T06:39:28;1.48;;;0.80;;
70780;SDS011;59514;48.810;2.134;2023-05-07T06:41:54;1.33;;;0.85;;
70780;SDS011;59514;48.810;2.134;2023-05-07T06:44:19;1.23;;;0.88;;
70780;SDS011;59514;48.810;2.134;2023-05-07T06:46:44;1.35;;;1.05;;
70780;SDS011;59514;48.810;2.134;2023-05-07T06:49:10;0.70;;;0.70;;
70780;SDS011;59514;48.810;2.134;2023-05-07T06:51:37;0.88;;;0.80;;
70780;SDS011;59514;48.810;2.134;2023-05-07T06:54:02;1.83;;;0.75;;
70780;SDS011;59514;48.810;2.134;2023-05-07T06:56:29;0.70;;;0.60;;
70780;SDS011;59514;48.810;2.134;2023-05-07T06:58:54;3.53;;;3.17;;
70780;SDS011;59514;48.810;2.134;2023-05-07T07:01:20;1.80;;;1.70;;
70780;SDS011;59514;48.810;2.134;2023-05-07T07:03:45;2.00;;;1.48;;
70780;SDS011;59514;48.810;2.134;2023-05-07T07:06:10;1.40;;;1.30;;
70780;SDS011;59514;48.810;2.134;2023-05-07T07:08:35;1.52;;;1.40;;
70780;SDS011;59514;48.810;2.134;2023-05-07T07:11:03;5.38;;;1.65;;
70780;SDS011;59514;48.810;2.134;2023-05-07T07:13:28;1.30;;;1.20;;
70780;SDS011;59514;48.810;2.134;2023-05-07T07:15:54;1.08;;;1.00;;
70780;SDS011;59514;48.810;2.134;2023-05-07T07:18:19;1.05;;;0.90;;
70780;SDS011;59514;48.810;2.134;2023-05-07T07:20:45;1.10;;;1.00;;
70780;SDS011;59514;48.810;2.134;2023-05-07T07:23:10;1.20;;;1.10;;
70780;SDS011;59514;48.810;2.134;2023-05-07T07:25:36;0.85;;;0.85;;
70780;SDS011;59514;48.810;2.134;2023-05-07T07:28:01;1.13;;;1.00;;
70780;SDS011;59514;48.810;2.134;2023-05-07T07:30:27;0.80;;;0.70;;
70780;SDS011;59514;48.810;2.134;2023-05-07T07:32:52;0.95;;;0.90;;
70780;SDS011;59514;48.810;2.134;2023-05-07T07:35:18;1.30;;;1.02;;
70780;SDS011;59514;48.810;2.134;2023-05-07T07:37:43;1.00;;;0.90;;
70780;SDS011;59514;48.810;2.134;2023-05-07T07:40:08;1.10;;;1.00;;
70780;SDS011;59514;48.810;2.134;2023-05-07T07:42:34;1.02;;;0.90;;
70780;SDS011;59514;48.810;2.134;2023-05-07T07:45:00;1.42;;;1.00;;
70780;SDS011;59514;48.810;2.134;2023-05-07T07:47:25;1.13;;;0.90;;
70780;SDS011;59514;48.810;2.134;2023-05-07T07:49:50;0.98;;;0.95;;
70780;SDS011;59514;48.810;2.134;2023-05-07T07:52:15;1.27;;;1.00;;
70780;SDS011;59514;48.810;2.134;2023-05-07T07:54:41;1.00;;;0.70;;
70780;SDS011;59514;48.810;2.134;2023-05-07T07:57:06;1.45;;;0.90;;
70780;SDS011;59514;48.810;2.134;2023-05-07T07:59:31;1.17;;;1.10;;
70780;SDS011;59514;48.810;2.134;2023-05-07T08:01:57;1.25;;;1.00;;
70780;SDS011;59514;48.810;2.134;2023-05-07T08:04:22;0.90;;;0.90;;
70780;SDS011;59514;48.810;2.134;2023-05-07T08:06:48;2.13;;;0.98;;
70780;SDS011;59514;48.810;2.134;2023-05-07T08:09:13;1.10;;;1.00;;
70780;SDS011;59514;48.810;2.134;2023-05-07T08:11:38;0.90;;;0.90;;
70780;SDS011;59514;48.810;2.134;2023-05-07T08:14:04;0.98;;;0.98;;
70780;SDS011;59514;48.810;2.134;2023-05-07T08:16:29;1.80;;;1.10;;
70780;SDS011;59514;48.810;2.134;2023-05-07T08:18:55;1.50;;;1.40;;
70780;SDS011;59514;48.810;2.134;2023-05-07T08:21:20;1.52;;;1.42;;
70780;SDS011;59514;48.810;2.134;2023-05-07T08:23:46;1.98;;;1.25;;
70780;SDS011;59514;48.810;2.134;2023-05-07T08:26:11;1.42;;;1.33;;
70780;SDS011;59514;48.810;2.134;2023-05-07T08:28:36;1.48;;;1.35;;
70780;SDS011;59514;48.810;2.134;2023-05-07T08:31:02;1.83;;;1.60;;
70780;SDS011;59514;48.810;2.134;2023-05-07T08:33:27;1.48;;;1.30;;
70780;SDS011;59514;48.810;2.134;2023-05-07T08:35:52;1.75;;;1.65;;
70780;SDS011;59514;48.810;2.134;2023-05-07T08:38:18;2.70;;;1.55;;
70780;SDS011;59514;48.810;2.134;2023-05-07T08:40:44;1.63;;;1.25;;
70780;SDS011;59514;48.810;2.134;2023-05-07T08:43:11;2.42;;;1.50;;
70780;SDS011;59514;48.810;2.134;2023-05-07T08:45:39;1.60;;;1.20;;
70780;SDS011;59514;48.810;2.134;2023-05-07T08:48:05;1.45;;;1.20;;
70780;SDS011;59514;48.810;2.134;2023-05-07T08:50:42;2.60;;;1.50;;
70780;SDS011;59514;48.810;2.134;2023-05-07T08:53:07;1.88;;;1.35;;
70780;SDS011;59514;48.810;2.134;2023-05-07T08:55:32;2.05;;;1.77;;
70780;SDS011;59514;48.810;2.134;2023-05-07T08:57:58;1.48;;;1.30;;
70780;SDS011;59514;48.810;2.134;2023-05-07T09:00:24;1.55;;;1.45;;
70780;SDS011;59514;48.810;2.134;2023-05-07T09:02:49;3.63;;;1.70;;
70780;SDS011;59514;48.810;2.134;2023-05-07T09:05:15;1.77;;;1.67;;
70780;SDS011;59514;48.810;2.134;2023-05-07T09:07:40;2.25;;;2.00;;
70780;SDS011;59514;48.810;2.134;2023-05-07T09:10:06;2.65;;;2.15;;
70780;SDS011;59514;48.810;2.134;2023-05-07T09:12:32;4.05;;;1.90;;
70780;SDS011;59514;48.810;2.134;2023-05-07T09:14:58;1.73;;;1.63;;
70780;SDS011;59514;48.810;2.134;2023-05-07T09:17:27;1.88;;;1.73;;
70780;SDS011;59514;48.810;2.134;2023-05-07T09:19:53;1.65;;;1.38;;
70780;SDS011;59514;48.810;2.134;2023-05-07T09:22:18;1.92;;;1.83;;
70780;SDS011;59514;48.810;2.134;2023-05-07T09:24:49;3.13;;;1.65;;
70780;SDS011;59514;48.810;2.134;2023-05-07T09:27:17;1.65;;;1.55;;
70780;SDS011;59514;48.810;2.134;2023-05-07T09:29:43;1.60;;;1.50;;
70780;SDS011;59514;48.810;2.134;2023-05-07T09:32:08;1.58;;;1.42;;
70780;SDS011;59514;48.810;2.134;2023-05-07T09:34:34;1.60;;;1.50;;
70780;SDS011;59514;48.810;2.134;2023-05-07T09:37:00;1.40;;;1.30;;
70780;SDS011;59514;48.810;2.134;2023-05-07T09:39:45;1.40;;;1.30;;
70780;SDS011;59514;48.810;2.134;2023-05-07T09:42:12;1.73;;;1.45;;
70780;SDS011;59514;48.810;2.134;2023-05-07T09:44:39;1.60;;;1.50;;
70780;SDS011;59514;48.810;2.134;2023-05-07T09:47:05;1.63;;;1.50;;
70780;SDS011;59514;48.810;2.134;2023-05-07T09:49:34;1.40;;;1.30;;
70780;SDS011;59514;48.810;2.134;2023-05-07T09:52:02;2.50;;;1.65;;
70780;SDS011;59514;48.810;2.134;2023-05-07T09:54:30;2.15;;;1.90;;
70780;SDS011;59514;48.810;2.134;2023-05-07T09:56:57;2.15;;;1.73;;
70780;SDS011;59514;48.810;2.134;2023-05-07T09:59:23;2.83;;;1.90;;
70780;SDS011;59514;48.810;2.134;2023-05-07T10:01:50;1.80;;;1.70;;
70780;SDS011;59514;48.810;2.134;2023-05-07T10:04:18;1.70;;;1.60;;
70780;SDS011;59514;48.810;2.134;2023-05-07T10:06:44;2.13;;;1.92;;
70780;SDS011;59514;48.810;2.134;2023-05-07T10:09:11;2.92;;;1.75;;
70780;SDS011;59514;48.810;2.134;2023-05-07T10:11:37;1.55;;;1.40;;
70780;SDS011;59514;48.810;2.134;2023-05-07T10:14:03;1.95;;;1.70;;
70780;SDS011;59514;48.810;2.134;2023-05-07T10:16:31;2.38;;;2.17;;
70780;SDS011;59514;48.810;2.134;2023-05-07T10:19:02;2.40;;;1.70;;
70780;SDS011;59514;48.810;2.134;2023-05-07T10:21:31;1.60;;;1.50;;
70780;SDS011;59514;48.810;2.134;2023-05-07T10:24:04;1.70;;;1.60;;
70780;SDS011;59514;48.810;2.134;2023-05-07T10:26:38;1.60;;;1.50;;
70780;SDS011;59514;48.810;2.134;2023-05-07T10:29:14;2.17;;;1.45;;
70780;SDS011;59514;48.810;2.134;2023-05-07T10:31:51;1.67;;;1.55;;
70780;SDS011;59514;48.810;2.134;2023-05-07T10:34:21;1.77;;;1.67;;
70780;SDS011;59514;48.810;2.134;2023-05-07T10:36:49;1.90;;;1.73;;
70780;SDS011;59514;48.810;2.134;2023-05-07T10:39:16;1.83;;;1.70;;
70780;SDS011;59514;48.810;2.134;2023-05-07T10:41:42;2.15;;;1.95;;
70780;SDS011;59514;48.810;2.134;2023-05-07T10:44:07;1.60;;;1.50;;
70780;SDS011;59514;48.810;2.134;2023-05-07T10:46:33;1.67;;;1.52;;
70780;SDS011;59514;48.810;2.134;2023-05-07T10:51:29;2.47;;;1.42;;
70780;SDS011;59514;48.810;2.134;2023-05-07T10:56:42;1.77;;;1.67;;
70780;SDS011;59514;48.810;2.134;2023-05-07T11:01:55;5.55;;;2.03;;
70780;SDS011;59514;48.810;2.134;2023-05-07T11:04:27;1.77;;;1.67;;
70780;SDS011;59514;48.810;2.134;2023-05-07T11:12:18;2.30;;;2.10;;
70780;SDS011;59514;48.810;2.134;2023-05-07T11:15:08;1.73;;;1.63;;
70780;SDS011;59514;48.810;2.134;2023-05-07T11:17:51;2.15;;;1.73;;
70780;SDS011;59514;48.810;2.134;2023-05-07T11:20:18;1.80;;;1.70;;
70780;SDS011;59514;48.810;2.134;2023-05-07T11:22:43;1.73;;;1.60;;
70780;SDS011;59514;48.810;2.134;2023-05-07T11:25:08;1.70;;;1.60;;
70780;SDS011;59514;48.810;2.134;2023-05-07T11:27:34;3.42;;;1.50;;
70780;SDS011;59514;48.810;2.134;2023-05-07T11:29:59;1.73;;;1.63;;
70780;SDS011;59514;48.810;2.134;2023-05-07T11:32:28;1.95;;;1.85;;
70780;SDS011;59514;48.810;2.134;2023-05-07T11:34:57;1.70;;;1.60;;
70780;SDS011;59514;48.810;2.134;2023-05-07T11:37:24;1.45;;;1.35;;
70780;SDS011;59514;48.810;2.134;2023-05-07T11:39:51;2.08;;;1.92;;
70780;SDS011;59514;48.810;2.134;2023-05-07T11:42:31;2.55;;;1.63;;
70780;SDS011;59514;48.810;2.134;2023-05-07T11:44:59;2.15;;;1.58;;
70780;SDS011;59514;48.810;2.134;2023-05-07T11:47:24;14.20;;;12.95;;
70780;SDS011;59514;48.810;2.134;2023-05-07T11:49:53;3.35;;;3.13;;
70780;SDS011;59514;48.810;2.134;2023-05-07T11:52:20;2.92;;;2.65;;
70780;SDS011;59514;48.810;2.134;2023-05-07T11:57:15;2.35;;;2.15;;
70780;SDS011;59514;48.810;2.134;2023-05-07T11:59:41;2.20;;;1.85;;
70780;SDS011;59514;48.810;2.134;2023-05-07T12:02:07;2.15;;;1.95;;
70780;SDS011;59514;48.810;2.134;2023-05-07T12:04:33;3.75;;;2.53;;
70780;SDS011;59514;48.810;2.134;2023-05-07T12:06:58;4.55;;;2.90;;
70780;SDS011;59514;48.810;2.134;2023-05-07T12:09:23;2.53;;;2.33;;
70780;SDS011;59514;48.810;2.134;2023-05-07T12:11:49;3.08;;;2.40;;
70780;SDS011;59514;48.810;2.134;2023-05-07T12:14:16;3.05;;;2.70;;
70780;SDS011;59514;48.810;2.134;2023-05-07T12:16:42;4.03;;;3.15;;
70780;SDS011;59514;48.810;2.134;2023-05-07T12:19:08;3.22;;;3.00;;
70780;SDS011;59514;48.810;2.134;2023-05-07T12:21:37;3.15;;;2.55;;
70780;SDS011;59514;48.810;2.134;2023-05-07T12:24:03;6.68;;;5.22;;
70780;SDS011;59514;48.810;2.134;2023-05-07T12:26:29;5.07;;;4.50;;
70780;SDS011;59514;48.810;2.134;2023-05-07T12:28:54;3.65;;;3.35;;
70780;SDS011;59514;48.810;2.134;2023-05-07T12:31:19;3.30;;;3.10;;
70780;SDS011;59514;48.810;2.134;2023-05-07T12:33:45;3.35;;;2.65;;
70780;SDS011;59514;48.810;2.134;2023-05-07T12:36:11;3.05;;;2.55;;
70780;SDS011;59514;48.810;2.134;2023-05-07T12:38:38;2.80;;;2.50;;
70780;SDS011;59514;48.810;2.134;2023-05-07T12:41:05;3.20;;;2.33;;
70780;SDS011;59514;48.810;2.134;2023-05-07T12:43:32;2.92;;;2.72;;
70780;SDS011;59514;48.810;2.134;2023-05-07T12:45:59;3.42;;;3.22;;
70780;SDS011;59514;48.810;2.134;2023-05-07T12:48:26;3.78;;;3.47;;
70780;SDS011;59514;48.810;2.134;2023-05-07T12:50:54;3.60;;;3.30;;
70780;SDS011;59514;48.810;2.134;2023-05-07T12:53:21;4.78;;;4.38;;
70780;SDS011;59514;48.810;2.134;2023-05-07T12:55:48;4.45;;;4.05;;
70780;SDS011;59514;48.810;2.134;2023-05-07T12:58:16;4.85;;;4.35;;
70780;SDS011;59514;48.810;2.134;2023-05-07T13:00:46;6.68;;;4.30;;
70780;SDS011;59514;48.810;2.134;2023-05-07T13:03:15;6.97;;;5.00;;
70780;SDS011;59514;48.810;2.134;2023-05-07T13:05:46;4.78;;;4.40;;
70780;SDS011;59514;48.810;2.134;2023-05-07T13:08:11;5.10;;;4.45;;
70780;SDS011;59514;48.810;2.134;2023-05-07T13:10:48;4.57;;;4.18;;
70780;SDS011;59514;48.810;2.134;2023-05-07T13:13:13;3.37;;;3.07;;
70780;SDS011;59514;48.810;2.134;2023-05-07T13:15:38;3.58;;;2.90;;
70780;SDS011;59514;48.810;2.134;2023-05-07T13:18:04;3.17;;;2.97;;
70780;SDS011;59514;48.810;2.134;2023-05-07T13:20:29;3.38;;;3.08;;
70780;SDS011;59514;48.810;2.134;2023-05-07T13:22:54;3.03;;;2.73;;
70780;SDS011;59514;48.810;2.134;2023-05-07T13:25:20;3.95;;;3.20;;
70780;SDS011;59514;48.810;2.134;2023-05-07T13:27:45;3.47;;;3.17;;
70780;SDS011;59514;48.810;2.134;2023-05-07T13:30:10;3.33;;;3.03;;
70780;SDS011;59514;48.810;2.134;2023-05-07T13:32:36;3.55;;;3.25;;
70780;SDS011;59514;48.810;2.134;2023-05-07T13:35:01;3.70;;;3.28;;
70780;SDS011;59514;48.810;2.134;2023-05-07T13:37:26;4.70;;;3.97;;
70780;SDS011;59514;48.810;2.134;2023-05-07T13:39:51;6.15;;;4.32;;
70780;SDS011;59514;48.810;2.134;2023-05-07T13:42:17;5.15;;;4.65;;
70780;SDS011;59514;48.810;2.134;2023-05-07T13:44:42;6.20;;;5.00;;
70780;SDS011;59514;48.810;2.134;2023-05-07T13:47:08;5.38;;;4.70;;
70780;SDS011;59514;48.810;2.134;2023-05-07T13:49:34;4.93;;;4.43;;
70780;SDS011;59514;48.810;2.134;2023-05-07T13:52:02;5.20;;;4.70;;
70780;SDS011;59514;48.810;2.134;2023-05-07T13:54:27;5.18;;;4.72;;
70780;SDS011;59514;48.810;2.134;2023-05-07T13:56:52;6.25;;;5.65;;
70780;SDS011;59514;48.810;2.134;2023-05-07T13:59:18;5.15;;;4.65;;
70780;SDS011;59514;48.810;2.134;2023-05-07T14:01:43;4.75;;;4.35;;
70780;SDS011;59514;48.810;2.134;2023-05-07T14:04:08;3.92;;;3.63;;
70780;SDS011;59514;48.810;2.134;2023-05-07T14:06:34;3.42;;;3.13;;
70780;SDS011;59514;48.810;2.134;2023-05-07T14:09:00;3.15;;;2.92;;
70780;SDS011;59514;48.810;2.134;2023-05-07T14:11:25;2.70;;;2.50;;
70780;SDS011;59514;48.810;2.134;2023-05-07T14:13:50;2.90;;;2.70;;
70780;SDS011;59514;48.810;2.134;2023-05-07T14:16:16;2.58;;;2.38;;
70780;SDS011;59514;48.810;2.134;2023-05-07T14:18:41;2.35;;;2.15;;
70780;SDS011;59514;48.810;2.134;2023-05-07T14:21:06;3.15;;;2.20;;
70780;SDS011;59514;48.810;2.134;2023-05-07T14:23:32;2.45;;;2.25;;
70780;SDS011;59514;48.810;2.134;2023-05-07T14:25:58;2.28;;;2.08;;
70780;SDS011;59514;48.810;2.134;2023-05-07T14:28:23;2.35;;;2.15;;
70780;SDS011;59514;48.810;2.134;2023-05-07T14:30:49;2.25;;;2.15;;
70780;SDS011;59514;48.810;2.134;2023-05-07T14:33:14;2.45;;;2.25;;
70780;SDS011;59514;48.810;2.134;2023-05-07T14:35:39;2.47;;;2.27;;
70780;SDS011;59514;48.810;2.134;2023-05-07T14:38:05;2.88;;;2.60;;
70780;SDS011;59514;48.810;2.134;2023-05-07T14:40:30;2.97;;;2.70;;
70780;SDS011;59514;48.810;2.134;2023-05-07T14:42:56;2.63;;;2.40;;
70780;SDS011;59514;48.810;2.134;2023-05-07T14:45:22;2.63;;;2.30;;
70780;SDS011;59514;48.810;2.134;2023-05-07T14:47:47;2.30;;;2.10;;
70780;SDS011;59514;48.810;2.134;2023-05-07T14:50:13;2.22;;;2.05;;
70780;SDS011;59514;48.810;2.134;2023-05-07T14:52:38;2.27;;;2.07;;
70780;SDS011;59514;48.810;2.134;2023-05-07T14:55:04;1.90;;;1.80;;
70780;SDS011;59514;48.810;2.134;2023-05-07T14:57:29;2.38;;;2.13;;